createdAt,value
2023-04-06T00:00:37.045Z,13.40
2023-04-06T00:03:05.582Z,12.57
2023-04-06T00:05:33.979Z,11.33
2023-04-06T00:08:03.528Z,14.23
2023-04-06T00:10:31.923Z,12.70
2023-04-06T00:13:01.072Z,14.13
2023-04-06T00:15:29.210Z,12.00
2023-04-06T00:17:58.249Z,11.53
2023-04-06T00:20:27.580Z,11.93
2023-04-06T00:22:56.117Z,12.33
2023-04-06T00:25:25.670Z,13.33
2023-04-06T00:27:53.881Z,12.07
2023-04-06T00:30:22.599Z,13.17
2023-04-06T00:32:50.736Z,12.57
2023-04-06T00:35:18.925Z,13.17
2023-04-06T00:37:49.083Z,12.67
2023-04-06T00:40:17.504Z,10.90
2023-04-06T00:42:47.475Z,10.63
2023-04-06T00:45:15.561Z,11.30
2023-04-06T00:47:43.890Z,9.87
2023-04-06T00:50:12.254Z,11.37
2023-04-06T00:52:40.410Z,11.93
2023-04-06T00:55:09.858Z,12.93
2023-04-06T00:57:38.309Z,10.03
2023-04-06T01:00:09.449Z,10.10
2023-04-06T01:02:37.787Z,9.67
2023-04-06T01:05:06.807Z,9.30
2023-04-06T01:07:35.382Z,10.17
2023-04-06T01:10:03.913Z,9.53
2023-04-06T01:12:32.138Z,11.37
2023-04-06T01:15:00.538Z,9.73
2023-04-06T01:17:30.685Z,10.47
2023-04-06T01:19:59.258Z,11.63
2023-04-06T01:22:28.817Z,10.07
2023-04-06T01:24:57.668Z,10.27
2023-04-06T01:27:27.347Z,9.63
2023-04-06T01:29:55.540Z,11.27
2023-04-06T01:32:24.028Z,9.70
2023-04-06T01:34:52.161Z,11.17
2023-04-06T01:37:20.413Z,9.47
2023-04-06T01:39:50.048Z,9.10
2023-04-06T01:42:18.185Z,8.67
2023-04-06T01:44:48.172Z,9.90
2023-04-06T01:47:16.248Z,10.73
2023-04-06T01:49:44.427Z,11.00
2023-04-06T01:52:12.529Z,9.07
2023-04-06T01:54:40.888Z,9.60
2023-04-06T01:57:10.561Z,9.40
2023-04-06T01:59:38.813Z,8.30
2023-04-06T02:02:07.025Z,9.63
2023-04-06T02:04:35.134Z,11.17
2023-04-06T02:07:03.240Z,11.67
2023-04-06T02:09:31.922Z,12.10
2023-04-06T02:12:00.052Z,8.90
2023-04-06T02:14:29.682Z,10.20
2023-04-06T02:16:57.849Z,8.97
2023-04-06T02:19:26.068Z,10.63
2023-04-06T02:21:54.375Z,11.00
2023-04-06T02:24:22.429Z,8.70
2023-04-06T02:26:50.917Z,9.50
2023-04-06T02:29:19.044Z,10.47
2023-04-06T02:31:48.599Z,10.23
2023-04-06T02:34:18.957Z,8.77
2023-04-06T02:36:47.780Z,9.70
2023-04-06T02:39:16.673Z,9.57
2023-04-06T02:41:44.800Z,10.27
2023-04-06T02:44:12.898Z,8.53
2023-04-06T02:46:41.396Z,10.87
2023-04-06T02:49:10.898Z,10.60
2023-04-06T02:51:39.074Z,9.23
2023-04-06T02:54:07.206Z,10.13
2023-04-06T02:56:35.545Z,10.43
2023-04-06T02:59:04.034Z,11.53
2023-04-06T03:01:32.482Z,11.57
2023-04-06T03:04:00.609Z,12.50
2023-04-06T03:06:30.162Z,14.83
2023-04-06T03:08:58.272Z,13.37
2023-04-06T03:11:27.911Z,12.40
2023-04-06T03:13:56.078Z,12.10
2023-04-06T03:16:24.351Z,11.23
2023-04-06T03:18:52.500Z,7.97
2023-04-06T03:21:21.324Z,10.53
2023-04-06T03:23:52.204Z,10.17
2023-04-06T03:26:20.478Z,9.47
2023-04-06T03:28:48.566Z,8.70
2023-04-06T03:31:16.834Z,9.10
2023-04-06T03:33:44.986Z,9.53
2023-04-06T03:36:13.557Z,9.60
2023-04-06T03:38:41.663Z,8.57
2023-04-06T03:41:11.553Z,9.33
2023-04-06T03:43:39.677Z,13.53
2023-04-06T03:46:07.867Z,12.77
2023-04-06T03:48:36.476Z,11.30
2023-04-06T03:51:04.681Z,10.93
2023-04-06T03:53:32.894Z,10.37
2023-04-06T03:56:03.428Z,10.53
2023-04-06T03:58:34.247Z,12.90
2023-04-06T04:01:02.583Z,11.10
2023-04-06T04:03:30.806Z,9.67
2023-04-06T04:05:59.029Z,10.93
2023-04-06T04:08:27.502Z,9.63
2023-04-06T04:10:56.478Z,9.10
2023-04-06T04:13:25.025Z,11.97
2023-04-06T04:15:54.982Z,13.83
2023-04-06T04:18:23.189Z,10.00
2023-04-06T04:20:55.663Z,11.07
2023-04-06T04:23:23.837Z,12.63
2023-04-06T04:25:52.735Z,16.10
2023-04-06T04:28:20.875Z,15.73
2023-04-06T04:30:49.093Z,14.63
2023-04-06T04:33:18.607Z,22.20
2023-04-06T04:35:46.798Z,16.77
2023-04-06T04:38:15.362Z,14.53
2023-04-06T04:40:43.525Z,13.60
2023-04-06T04:43:11.832Z,17.27
2023-04-06T04:45:39.935Z,16.80
2023-04-06T04:48:09.632Z,13.27
2023-04-06T04:50:39.529Z,13.47
2023-04-06T04:53:07.617Z,14.90
2023-04-06T04:55:35.723Z,15.00
2023-04-06T04:58:04.411Z,13.90
2023-04-06T05:00:32.706Z,16.17
2023-04-06T05:03:01.456Z,15.40
2023-04-06T05:05:29.611Z,13.27
2023-04-06T05:07:59.146Z,14.97
2023-04-06T05:10:27.277Z,16.07
2023-04-06T05:12:55.516Z,17.67
2023-04-06T05:15:23.949Z,14.60
2023-04-06T05:17:53.288Z,14.40
2023-04-06T05:20:21.493Z,15.67
2023-04-06T05:22:49.601Z,16.53
2023-04-06T05:25:19.613Z,16.97
2023-04-06T05:27:48.021Z,15.70
2023-04-06T05:30:16.843Z,15.53
2023-04-06T05:32:45.487Z,15.37
2023-04-06T05:35:13.812Z,14.20
2023-04-06T05:37:42.221Z,12.80
2023-04-06T05:40:11.661Z,14.07
2023-04-06T05:42:42.126Z,13.53
2023-04-06T05:45:11.852Z,13.07
2023-04-06T05:47:40.054Z,14.23
2023-04-06T05:50:09.172Z,14.13
2023-04-06T05:52:37.671Z,12.10
2023-04-06T05:55:06.976Z,13.47
2023-04-06T05:57:36.134Z,15.77
2023-04-06T06:00:07.814Z,14.60
2023-04-06T06:02:36.081Z,13.50
2023-04-06T06:05:07.505Z,12.13
2023-04-06T06:07:35.687Z,10.40
2023-04-06T06:10:03.970Z,11.70
2023-04-06T06:12:32.096Z,10.67
2023-04-06T06:15:00.276Z,8.40
2023-04-06T06:17:30.154Z,10.27
2023-04-06T06:19:58.252Z,9.50
2023-04-06T06:22:26.396Z,7.87
2023-04-06T06:24:54.461Z,7.27
2023-04-06T13:10:54.123Z,8.80
2023-04-06T13:13:25.670Z,8.60
2023-04-06T13:15:53.985Z,8.40
2023-04-06T13:18:22.350Z,12.70
2023-04-06T13:20:50.515Z,10.43
2023-04-06T13:23:19.145Z,8.77
2023-04-06T13:25:48.703Z,8.47
2023-04-06T13:28:16.932Z,9.07
2023-04-06T13:30:45.386Z,9.00
2023-04-06T13:33:13.569Z,10.60
2023-04-06T13:35:41.935Z,9.47
2023-04-06T13:38:10.062Z,8.57
2023-04-06T13:40:41.022Z,9.87
2023-04-06T13:43:10.648Z,9.43
2023-04-06T13:45:39.292Z,9.37
2023-04-06T13:48:08.193Z,9.50
2023-04-06T13:50:36.452Z,9.87
2023-04-06T13:53:04.452Z,12.03
2023-04-06T13:55:32.426Z,10.00
2023-04-06T13:58:00.425Z,9.43
2023-04-06T14:00:30.385Z,10.07
2023-04-06T14:02:58.545Z,9.90
2023-04-06T14:05:28.708Z,9.70
2023-04-06T14:07:56.657Z,11.20
2023-04-06T14:10:27.637Z,10.30
2023-04-06T14:12:57.273Z,10.70
2023-04-06T14:15:25.475Z,9.60
2023-04-06T14:17:54.879Z,8.97
2023-04-06T14:20:23.005Z,9.10
2023-04-06T14:22:53.550Z,8.90
2023-04-06T14:25:21.812Z,8.80
2023-04-06T14:27:49.789Z,9.73
2023-04-06T14:30:18.091Z,9.80
2023-04-06T14:32:46.109Z,8.87
2023-04-06T14:35:15.498Z,9.17
2023-04-06T14:37:43.672Z,9.83
2023-04-06T14:40:12.309Z,9.67
2023-04-06T14:42:40.809Z,9.77
2023-04-06T14:45:09.622Z,8.10
2023-04-06T14:47:37.651Z,8.67
2023-04-06T14:50:06.908Z,9.83
2023-04-06T14:52:37.264Z,8.13
2023-04-06T14:55:05.913Z,8.03
2023-04-06T14:57:34.771Z,8.77
2023-04-06T15:00:04.344Z,8.47
2023-04-06T15:02:34.938Z,10.10
2023-04-06T15:05:03.881Z,9.63
2023-04-06T15:07:31.885Z,8.67
2023-04-06T15:10:01.241Z,9.07
2023-04-06T15:12:30.525Z,9.03
2023-04-06T15:14:59.395Z,8.90
2023-04-06T15:17:28.090Z,8.40
2023-04-06T15:19:56.289Z,8.63
2023-04-06T15:22:24.333Z,8.50
2023-04-06T15:24:52.547Z,7.80
2023-04-06T15:27:22.280Z,8.30
2023-04-06T15:29:50.425Z,10.43
2023-04-06T15:32:18.523Z,7.67
2023-04-06T15:34:46.572Z,11.97
2023-04-06T15:37:14.652Z,11.13
2023-04-06T15:39:44.068Z,17.50
2023-04-06T15:42:12.035Z,30.97
2023-04-06T15:44:41.593Z,11.70
2023-04-06T15:47:09.624Z,10.57
2023-04-06T15:49:37.679Z,9.33
2023-04-06T15:52:06.299Z,9.50
2023-04-06T15:54:36.483Z,9.43
2023-04-06T15:57:04.509Z,9.93
2023-04-06T15:59:32.447Z,11.50
2023-04-06T16:02:02.052Z,9.93
2023-04-06T16:04:30.883Z,13.10
2023-04-06T16:06:59.079Z,9.80
2023-04-06T16:09:27.744Z,11.67
2023-04-06T16:11:56.787Z,9.80
2023-04-06T16:14:24.937Z,11.17
2023-04-06T16:16:53.446Z,11.23
2023-04-06T16:19:22.816Z,13.87
2023-04-06T16:21:51.422Z,9.60
2023-04-06T16:24:19.444Z,11.70
2023-04-06T16:26:48.406Z,10.10
2023-04-06T16:29:17.435Z,10.50
2023-04-06T16:31:47.893Z,9.87
2023-04-06T16:34:16.125Z,9.67
2023-04-06T16:36:46.457Z,9.90
2023-04-06T16:39:14.641Z,8.60
2023-04-06T16:41:42.822Z,8.20
2023-04-06T16:44:11.351Z,9.27
2023-04-06T16:46:40.379Z,7.97
2023-04-06T16:49:08.444Z,8.13
2023-04-06T16:51:37.023Z,7.90
2023-04-06T16:54:06.901Z,7.33
2023-04-06T16:56:34.952Z,7.80
2023-04-06T16:59:03.030Z,8.83
2023-04-06T17:01:31.173Z,6.90
2023-04-06T17:03:59.469Z,7.27
2023-04-06T17:06:28.859Z,8.63
2023-04-06T17:08:57.071Z,7.43
2023-04-06T17:11:48.768Z,8.60
2023-04-06T17:14:14.941Z,11.10
2023-04-06T17:16:43.277Z,11.53
2023-04-06T17:19:11.397Z,13.20
2023-04-06T17:21:41.667Z,12.23
2023-04-06T17:24:09.883Z,9.60
2023-04-06T17:26:39.296Z,10.80
2023-04-06T17:29:07.693Z,10.43
2023-04-06T17:31:35.695Z,10.47
2023-04-06T17:34:03.854Z,10.33
2023-04-06T17:36:32.832Z,10.67
2023-04-06T17:39:00.949Z,9.27
2023-04-06T17:41:32.995Z,11.47
2023-04-06T17:44:02.385Z,12.53
2023-04-06T17:46:30.507Z,9.87
2023-04-06T17:48:58.611Z,9.20
2023-04-06T17:51:27.080Z,10.40
2023-04-06T17:53:55.898Z,9.80
2023-04-06T17:56:24.227Z,12.57
2023-04-06T17:58:56.035Z,11.73
2023-04-06T18:01:25.773Z,13.00
2023-04-06T18:03:54.053Z,11.50
2023-04-06T18:06:25.656Z,11.77
2023-04-06T18:08:54.474Z,11.87
2023-04-06T18:11:22.625Z,13.73
2023-04-06T18:13:52.327Z,15.10
2023-04-06T18:16:21.775Z,12.83
2023-04-06T18:18:51.537Z,10.73
2023-04-06T18:21:19.538Z,11.30
2023-04-06T18:23:48.076Z,12.03
2023-04-06T18:26:18.175Z,12.63
2023-04-06T18:28:46.540Z,12.90
2023-04-06T18:31:15.168Z,15.27
2023-04-06T18:33:43.842Z,13.73
2023-04-06T18:36:14.373Z,11.63
2023-04-06T18:38:44.333Z,12.37
2023-04-06T18:41:12.775Z,15.17
2023-04-06T18:43:41.825Z,14.63
2023-04-06T18:46:13.783Z,15.70
2023-04-06T18:48:41.921Z,14.33
2023-04-06T18:51:10.057Z,15.47
2023-04-06T18:53:40.016Z,15.50
2023-04-06T18:56:15.893Z,15.27
2023-04-06T18:58:44.195Z,17.23
2023-04-06T19:01:12.342Z,16.57
2023-04-06T19:03:40.429Z,20.73
2023-04-06T19:06:08.956Z,21.17
2023-04-06T19:08:37.426Z,18.30
2023-04-06T19:11:09.970Z,16.50
2023-04-06T19:13:39.137Z,17.87
2023-04-06T19:16:10.004Z,17.97
2023-04-06T19:18:38.454Z,18.93
2023-04-06T19:21:14.951Z,18.47
2023-04-06T19:23:43.113Z,19.53
2023-04-06T19:26:13.969Z,16.73
2023-04-06T19:28:43.387Z,15.93
2023-04-06T19:31:13.613Z,20.07
2023-04-06T19:33:41.939Z,16.13
2023-04-06T19:36:10.320Z,16.80
2023-04-06T19:38:39.019Z,20.20
2023-04-06T19:41:07.563Z,17.23
2023-04-06T19:43:36.913Z,17.27
2023-04-06T19:46:05.553Z,17.83
2023-04-06T19:48:34.242Z,19.07
2023-04-06T19:51:02.526Z,20.67
2023-04-06T19:53:31.159Z,18.77
2023-04-06T19:55:59.236Z,21.10
2023-04-06T19:58:27.289Z,18.33
2023-04-06T20:00:56.758Z,22.07
2023-04-06T20:03:25.110Z,21.73
2023-04-06T20:05:53.460Z,23.87
2023-04-06T20:08:21.474Z,23.23
2023-04-06T20:10:49.474Z,21.60
2023-04-06T20:13:17.486Z,18.90
2023-04-06T20:15:45.715Z,19.70
2023-04-06T20:18:19.237Z,19.57
2023-04-06T20:20:47.232Z,18.70
2023-04-06T20:23:15.334Z,19.10
2023-04-06T20:25:43.348Z,19.07
2023-04-06T20:28:11.429Z,19.90
2023-04-06T20:30:39.930Z,20.30
2023-04-06T20:33:08.056Z,18.63
2023-04-06T20:35:37.461Z,19.13
2023-04-06T20:38:05.553Z,20.80
2023-04-06T20:40:33.762Z,21.87
2023-04-06T20:43:03.372Z,25.07
2023-04-06T20:45:38.276Z,24.63
2023-04-06T20:48:06.463Z,22.37
2023-04-06T20:50:34.564Z,22.23
2023-04-06T20:53:04.111Z,22.47
2023-04-06T20:55:34.088Z,20.33
2023-04-06T20:58:02.089Z,20.97
2023-04-06T21:00:30.111Z,18.43
2023-04-06T21:02:58.314Z,19.20
2023-04-06T21:05:26.842Z,18.87
2023-04-06T21:07:55.390Z,22.23
2023-04-06T21:10:25.134Z,19.73
2023-04-06T21:12:53.085Z,21.43
2023-04-06T21:15:21.125Z,20.93
2023-04-06T21:17:49.833Z,20.60
2023-04-06T21:20:17.955Z,20.67
2023-04-06T21:22:45.945Z,20.97
2023-04-06T21:25:14.860Z,18.70
2023-04-06T21:27:44.279Z,19.77
2023-04-06T21:30:13.891Z,19.03
2023-04-06T21:32:42.007Z,20.93
2023-04-06T21:35:11.305Z,22.90
2023-04-06T21:37:39.374Z,21.90
2023-04-06T21:40:08.814Z,20.27
2023-04-06T21:42:37.344Z,19.57
2023-04-06T21:45:07.971Z,17.83
2023-04-06T21:47:36.189Z,20.67
2023-04-06T21:50:04.560Z,18.20
2023-04-06T21:52:32.753Z,18.13
2023-04-06T21:55:02.163Z,16.17
2023-04-06T21:57:30.109Z,19.37
2023-04-06T21:59:58.127Z,18.30
2023-04-06T22:02:29.062Z,17.03
2023-04-06T22:04:57.228Z,17.20
2023-04-06T22:07:25.894Z,19.83
2023-04-06T22:09:53.973Z,20.73
2023-04-06T22:12:21.976Z,18.63
2023-04-06T22:14:51.402Z,17.67
2023-04-06T22:17:19.462Z,16.93
2023-04-06T22:19:49.246Z,19.67
2023-04-06T22:22:17.271Z,17.87
2023-04-06T22:24:45.428Z,17.27
2023-04-06T22:27:13.610Z,20.03
2023-04-06T22:29:41.691Z,17.43
2023-04-06T22:32:13.152Z,18.93
2023-04-06T22:34:41.191Z,16.73
2023-04-06T22:37:10.589Z,19.93
2023-04-06T22:39:38.563Z,18.60
2023-04-06T22:42:06.815Z,17.57
2023-04-06T22:44:35.129Z,18.67
2023-04-06T22:47:03.152Z,17.33
2023-04-06T22:49:31.128Z,16.47
2023-04-06T22:51:59.105Z,16.53
2023-04-06T22:54:28.488Z,19.13
2023-04-06T22:56:57.239Z,19.37
2023-04-06T22:59:25.183Z,18.63
2023-04-06T23:01:53.190Z,18.53
2023-04-06T23:04:21.557Z,18.00
2023-04-06T23:06:49.932Z,16.80
2023-04-06T23:09:18.395Z,16.97
2023-04-06T23:11:47.742Z,16.58
2023-04-06T23:14:16.003Z,19.17
2023-04-06T23:16:44.255Z,17.27
2023-04-06T23:19:12.304Z,19.70
2023-04-06T23:21:41.122Z,17.97
2023-04-06T23:24:09.122Z,18.67
2023-04-06T23:26:37.044Z,16.50
2023-04-06T23:29:06.603Z,16.63
2023-04-06T23:31:34.574Z,17.33
2023-04-06T23:34:02.937Z,16.87
2023-04-06T23:36:31.697Z,17.57
2023-04-06T23:38:59.799Z,17.77
2023-04-06T23:41:28.140Z,16.80
2023-04-06T23:43:56.604Z,15.87
2023-04-06T23:46:26.466Z,17.17
2023-04-06T23:48:54.438Z,17.13
2023-04-06T23:51:22.393Z,16.70
2023-04-06T23:53:50.794Z,18.27
2023-04-06T23:56:18.765Z,18.50
2023-04-06T23:58:47.294Z,16.37
